Peters, Texas
Current Conditions -  °F | °C
As of 11:55 AM on Saturday 20 Dec 2014 (Local Time) from KELA Reporting Station
Overcast Overcast  
Wind Chill: 52°   Ceiling: 800
Heat Index: 52°   Visibility: 10mi
Dew Point: 50°   Wind: 7mph
Humidity: 92%   Direction: 360°N
Pressure: 30.2"   Gusts: NA
Location:  29.7835°N, 96.2064°W
Report Text: KELA 201755Z AUTO 36006KT 10SM OVC008 11/10 A3020 RMK AO2 T01120099 10114 20101
Loading
Personal Weather Stations






























Interactive Weather Map New forecast layout! Learn more

10-Day Weather Forecast

Advertisements
Track Severe Weather on mobile